Terminal Aerodrome Forecast
Issued by NWS

Home | Current Version | Previous Version | Text Only | Print | Product List | Glossary On
Versions: 1 2 3 4 5 6 7 8 9 10 11 12 13
000
FTUS43 KEAX 171700
TAFMKC
TAF
KMKC 171726Z 1718/1818 36005KT P6SM BKN025 BKN150
     FM171900 36005KT P6SM SCT025 BKN150
     FM180000 VRB04KT P6SM SKC=

USA.gov is the U.S. government's official web portal to all federal, state and local government web resources and services.